Terminal Aerodrome Forecast
Issued by NWS Miami, FL

Home | Current Version | Previous Version | Text Only | Print | Product List | Glossary On
Versions: 1 2 3 4 5 6 7 8 9 10 11 12 13 14 15 16 17 18 19 20 21 22 23 24 25 26 27 28 29 30 31 32 33 34 35 36 37 38 39 40 41 42 43 44 45 46 47 48 49 50
000
FTUS42 KMFL 071437 AAB
TAFAPF
TAF AMD
KAPF 071437Z 0715/0812 07009KT P6SM BKN015
      TEMPO 0715/0716 BKN009
     FM071800 28007KT P6SM VCSH BKN020
     FM072200 31005KT P6SM VCSH BKN035 BKN070
     FM080000 VRB03KT P6SM SCT030 OVC060
     FM080900 04003KT 3SM BR SCT010 BKN030=

USA.gov is the U.S. government's official web portal to all federal, state and local government web resources and services.